Time;durP1;ratioP1;P1;durP2;ratioP2;P2;SDS_P1;SDS_P2;PMS_P1;PMS_P2;Temp;Humidity;BMP_temperature;BMP_pressure;BME280_temperature;BME280_humidity;BME280_pressure;Samples;Min_cycle;Max_cycle;Signal;HPM_P1;HPM_P2
2023/09/10 00:00:58;;;;;;;10.90;6.57;;;;;;;-141.97;61.63;47309.59;5032663;28;20312;-82
2023/09/10 00:03:23;;;;;;;10.63;6.00;;;;;;;-141.97;61.54;47253.84;5031270;28;20178;-82
2023/09/10 00:05:49;;;;;;;9.90;5.87;;;;;;;-141.97;61.91;47415.28;5032369;28;20244;-82
2023/09/10 00:08:14;;;;;;;10.63;6.33;;;;;;;-141.97;62.13;47469.09;5032241;28;20583;-82
2023/09/10 00:10:41;;;;;;;12.97;6.60;;;;;;;-141.97;62.75;47497.94;5032084;28;20224;-82
2023/09/10 00:13:07;;;;;;;8.17;6.10;;;;;;;-141.97;63.35;47419.13;5032613;28;20159;-81
2023/09/10 00:15:33;;;;;;;11.00;6.27;;;;;;;-141.97;63.06;47588.28;5032947;28;20173;-80
2023/09/10 00:17:59;;;;;;;10.07;6.93;;;;;;;-141.97;63.94;47532.53;5032325;28;20642;-80
2023/09/10 00:20:26;;;;;;;11.17;6.50;;;;;;;-141.97;64.15;47319.19;5032961;28;20166;-81
2023/09/10 00:22:52;;;;;;;10.87;7.13;;;;;;;-141.97;64.63;47461.41;5028755;28;20244;-81
2023/09/10 00:25:18;;;;;;;14.00;7.33;;;;;;;-141.97;64.95;47469.09;5034415;28;20171;-82
2023/09/10 00:27:43;;;;;;;13.07;7.43;;;;;;;-141.97;65.40;47392.22;5021661;28;20170;-82
2023/09/10 00:30:09;;;;;;;13.13;7.63;;;;;;;-141.97;65.96;47453.72;5018095;28;20642;-82
2023/09/10 00:32:34;;;;;;;10.23;7.47;;;;;;;-141.97;66.43;47478.72;5013153;28;20166;-83
2023/09/10 00:35:00;;;;;;;11.37;7.50;;;;;;;-141.97;66.91;47461.41;5029621;28;20186;-83
2023/09/10 00:37:25;;;;;;;11.90;7.53;;;;;;;-141.97;67.32;47570.97;5013936;28;20612;-82
2023/09/10 00:39:51;;;;;;;13.37;7.77;;;;;;;-141.97;67.79;47546.00;5023287;28;20194;-82
2023/09/10 00:42:17;;;;;;;12.13;7.37;;;;;;;-141.97;68.04;47438.34;5018147;28;20290;-81
2023/09/10 00:44:43;;;;;;;12.33;8.20;;;;;;;-141.97;67.61;47472.94;5016110;28;20163;-82
2023/09/10 00:47:09;;;;;;;15.17;9.80;;;;;;;-141.97;67.70;47453.72;5017497;28;20174;-82
2023/09/10 00:49:35;;;;;;;15.77;9.60;;;;;;;-141.97;67.94;47465.25;5027770;28;20236;-82
2023/09/10 00:52:01;;;;;;;15.43;9.90;;;;;;;-141.97;67.93;47436.44;5028288;28;20559;-82
2023/09/10 00:54:31;;;;;;;16.13;9.23;;;;;;;-141.97;68.27;47442.19;5015630;28;20224;-82
2023/09/10 00:56:57;;;;;;;14.37;8.83;;;;;;;-141.97;68.79;47369.16;5015821;28;20170;-80
2023/09/10 00:59:23;;;;;;;15.10;8.80;;;;;;;-141.97;69.80;47465.25;5031425;28;20323;-81
2023/09/10 01:01:49;;;;;;;17.17;8.03;;;;;;;-141.97;70.09;47449.88;5016110;28;20589;-81
2023/09/10 01:04:16;;;;;;;13.90;8.00;;;;;;;-141.97;69.92;47484.47;5013248;28;20166;-82
2023/09/10 01:06:42;;;;;;;12.57;7.30;;;;;;;-141.97;69.49;47569.06;5011887;28;20158;-80
2023/09/10 01:09:07;;;;;;;12.90;7.87;;;;;;;-141.97;70.12;47501.78;5011798;28;20284;-83
2023/09/10 01:12:17;;;;;;;14.27;7.90;;;;;;;-141.97;69.99;47490.25;5013002;28;20169;-82
2023/09/10 01:14:57;;;;;;;13.83;7.33;;;;;;;-141.97;69.90;47492.16;4970689;28;20287;-82
2023/09/10 01:17:30;;;;;;;13.30;7.80;;;;;;;-141.97;69.98;47453.72;4971407;28;20249;-82
2023/09/10 01:20:11;;;;;;;12.57;7.23;;;;;;;-141.97;70.47;47401.84;4971071;28;20235;-81
2023/09/10 01:23:03;;;;;;;13.57;7.63;;;;;;;-141.97;70.75;47492.16;4954425;28;20227;-81
2023/09/10 01:25:29;;;;;;;14.27;7.67;;;;;;;-141.97;71.12;47476.78;4972669;28;20206;-81
2023/09/10 01:27:55;;;;;;;11.43;7.60;;;;;;;-141.97;71.57;47478.72;4977000;28;20581;-80
2023/09/10 01:30:20;;;;;;;13.57;7.67;;;;;;;-141.97;71.70;47476.78;4987830;28;20202;-81
2023/09/10 01:32:51;;;;;;;12.70;7.40;;;;;;;-141.97;71.62;47496.00;4975616;28;20176;-82
2023/09/10 01:35:40;;;;;;;10.03;6.93;;;;;;;-141.97;71.93;47513.31;4971937;28;20219;-82
2023/09/10 01:38:15;;;;;;;12.53;7.10;;;;;;;-141.97;71.51;47436.44;4970376;28;20176;-80
2023/09/10 01:40:46;;;;;;;10.20;6.63;;;;;;;-141.97;70.87;47474.88;4970168;28;20180;-82
2023/09/10 01:43:12;;;;;;;12.80;6.57;;;;;;;-141.97;70.94;47594.03;4973637;28;20228;-81
2023/09/10 01:45:38;;;;;;;9.87;6.13;;;;;;;-141.97;71.57;47392.22;4959636;28;20172;-80
2023/09/10 01:48:04;;;;;;;10.83;6.37;;;;;;;-141.97;72.52;47586.34;4989065;28;20261;-81
2023/09/10 01:50:30;;;;;;;11.43;6.23;;;;;;;-141.97;72.34;47465.25;5018200;28;20167;-81
2023/09/10 01:52:57;;;;;;;9.43;5.80;;;;;;;-141.97;71.54;47499.84;5018012;28;20170;-82
2023/09/10 01:55:22;;;;;;;10.00;6.20;;;;;;;-141.97;71.92;47519.06;5017591;28;20204;-81
2023/09/10 01:57:48;;;;;;;7.97;5.50;;;;;;;-141.97;73.01;47471.03;5018271;28;20178;-81
2023/09/10 02:00:13;;;;;;;10.20;5.97;;;;;;;-141.97;72.86;47472.94;5019701;28;20203;-81
2023/09/10 02:02:39;;;;;;;7.33;4.97;;;;;;;-141.97;72.79;47492.16;5017548;28;20217;-82
2023/09/10 02:05:04;;;;;;;8.00;5.30;;;;;;;-141.97;73.19;47503.69;5012965;28;20225;-79
2023/09/10 02:07:30;;;;;;;8.90;5.47;;;;;;;-141.97;72.53;47376.84;5011528;28;20166;-80
2023/09/10 02:09:58;;;;;;;8.17;5.33;;;;;;;-141.97;72.53;47522.91;5010760;28;20269;-82
2023/09/10 02:12:24;;;;;;;8.93;5.40;;;;;;;-141.97;72.15;47497.94;5010460;28;20606;-82
2023/09/10 02:14:49;;;;;;;8.37;5.23;;;;;;;-141.97;71.38;47484.47;5010546;28;20248;-82
2023/09/10 02:17:15;;;;;;;9.83;5.20;;;;;;;-141.97;70.37;47557.53;5010763;28;20182;-82
2023/09/10 02:19:40;;;;;;;7.43;5.17;;;;;;;-141.97;70.36;47461.41;5012546;28;20521;-82
2023/09/10 02:22:06;;;;;;;8.07;5.00;;;;;;;-141.97;70.67;47642.09;5014519;28;20624;-81
2023/09/10 02:24:31;;;;;;;8.70;4.50;;;;;;;-141.97;70.01;47474.88;5016182;28;20167;-81
2023/09/10 02:26:56;;;;;;;7.07;4.87;;;;;;;-141.97;70.21;47619.03;5029569;28;20236;-81
2023/09/10 02:29:22;;;;;;;7.80;5.20;;;;;;;-141.97;70.80;47599.81;5014816;28;20167;-81
2023/09/10 02:31:47;;;;;;;10.43;5.90;;;;;;;-141.97;72.47;47559.44;5014686;28;20226;-81
2023/09/10 02:34:12;;;;;;;8.50;5.77;;;;;;;-141.97;72.95;47515.22;5029770;28;20206;-81
2023/09/10 02:36:38;;;;;;;9.07;5.63;;;;;;;-141.97;72.67;47515.22;5013080;28;20179;-81
2023/09/10 02:39:03;;;;;;;7.63;5.57;;;;;;;-141.97;72.35;47517.16;5016711;28;20171;-83
2023/09/10 02:41:29;;;;;;;10.80;5.50;;;;;;;-141.97;72.50;47365.31;5026839;28;20194;-84
2023/09/10 02:43:55;;;;;;;8.07;5.50;;;;;;;-141.97;72.29;47413.38;5021652;28;20254;-83
2023/09/10 02:46:20;;;;;;;9.80;5.63;;;;;;;-141.97;72.57;47530.59;5014577;28;20295;-83
2023/09/10 02:48:45;;;;;;;10.33;6.07;;;;;;;-141.97;71.88;47472.94;5029661;28;20642;-82
2023/09/10 02:51:11;;;;;;;10.80;5.73;;;;;;;-141.97;71.47;47542.16;5014290;28;20159;-82
2023/09/10 02:53:36;;;;;;;12.03;5.80;;;;;;;-141.97;71.41;47396.06;5014465;28;20650;-82
2023/09/10 02:56:02;;;;;;;7.70;5.63;;;;;;;-141.97;71.59;47382.63;5027328;28;20186;-82
2023/09/10 02:58:29;;;;;;;7.03;4.90;;;;;;;-141.97;72.42;47469.09;5031978;28;20179;-82
2023/09/10 03:00:54;;;;;;;7.07;5.40;;;;;;;-141.97;72.59;47553.69;5020795;28;20170;-83
2023/09/10 03:03:21;;;;;;;8.70;5.47;;;;;;;-141.97;73.13;47421.06;5021477;28;20206;-83
2023/09/10 03:05:46;;;;;;;9.83;5.40;;;;;;;-141.97;73.16;47513.31;5023484;28;20262;-81
2023/09/10 03:08:12;;;;;;;8.43;5.10;;;;;;;-141.97;72.99;47526.75;5024417;28;20215;-83
2023/09/10 03:10:37;;;;;;;8.43;5.10;;;;;;;-141.97;72.82;47482.56;5022491;28;20226;-81
2023/09/10 03:13:03;;;;;;;7.70;4.90;;;;;;;-141.97;72.25;47603.66;5016114;28;20174;-82
2023/09/10 03:15:28;;;;;;;6.87;4.90;;;;;;;-141.97;72.33;47553.69;5014176;28;20242;-82
2023/09/10 03:17:54;;;;;;;10.40;4.87;;;;;;;-141.97;72.50;47461.41;5028947;28;20647;-82
2023/09/10 03:20:19;;;;;;;6.67;4.47;;;;;;;-141.97;71.84;47490.25;5014079;28;20171;-81
2023/09/10 03:22:45;;;;;;;8.27;4.80;;;;;;;-141.97;71.71;47496.00;5013399;28;20269;-81
2023/09/10 03:25:10;;;;;;;6.13;4.53;;;;;;;-141.97;71.76;47474.88;5013428;28;20191;-81
2023/09/10 03:27:36;;;;;;;6.93;4.63;;;;;;;-141.97;71.72;47469.09;5013236;28;20181;-82
2023/09/10 03:30:05;;;;;;;9.43;4.60;;;;;;;-141.97;71.66;47496.00;5011669;28;20589;-82
2023/09/10 03:32:30;;;;;;;7.07;4.73;;;;;;;-141.97;71.70;47482.56;5028975;28;20175;-81
2023/09/10 03:34:56;;;;;;;7.90;4.83;;;;;;;-141.97;71.80;47388.38;5022274;28;20190;-82
2023/09/10 03:37:21;;;;;;;8.27;4.90;;;;;;;-141.97;72.09;47496.00;5019330;28;20181;-81
2023/09/10 03:39:47;;;;;;;7.10;4.70;;;;;;;-141.97;72.00;47590.19;5013475;28;20162;-81
2023/09/10 03:42:12;;;;;;;7.30;4.80;;;;;;;-141.97;72.03;47434.50;5013395;28;20191;-82
2023/09/10 03:44:37;;;;;;;9.13;5.07;;;;;;;-141.97;71.85;47338.41;5013769;28;20677;-83
2023/09/10 03:47:03;;;;;;;10.83;5.10;;;;;;;-141.97;70.71;47426.81;5014327;28;20178;-83
2023/09/10 03:49:28;;;;;;;8.47;4.50;;;;;;;-141.97;69.99;47594.03;5015337;28;20163;-81
2023/09/10 03:51:56;;;;;;;9.30;4.20;;;;;;;-141.97;69.69;47526.75;5014516;28;20174;-82
2023/09/10 03:54:21;;;;;;;9.57;4.70;;;;;;;-141.97;69.55;47599.81;5013715;28;20313;-81
2023/09/10 03:56:47;;;;;;;8.00;4.37;;;;;;;-141.97;70.01;47321.13;5013419;28;20253;-81
2023/09/10 03:59:12;;;;;;;8.93;4.60;;;;;;;-141.97;70.44;47478.72;5013690;28;20174;-82
2023/09/10 04:01:39;;;;;;;6.93;4.40;;;;;;;-141.97;70.19;47588.28;5013596;28;20230;-82
2023/09/10 04:04:04;;;;;;;8.33;4.57;;;;;;;-141.97;70.06;47611.34;5014209;28;20261;-82
2023/09/10 04:06:30;;;;;;;8.10;5.13;;;;;;;-141.97;70.03;47634.41;5013989;28;20228;-82
2023/09/10 04:08:55;;;;;;;10.43;4.10;;;;;;;-141.97;71.01;47476.78;5016722;28;20642;-82
2023/09/10 04:11:21;;;;;;;10.47;4.60;;;;;;;-141.97;71.42;47472.94;5018045;28;20175;-82
2023/09/10 04:13:46;;;;;;;7.00;4.40;;;;;;;-141.97;71.86;47422.97;5014240;28;20175;-82
2023/09/10 04:16:11;;;;;;;8.17;4.47;;;;;;;-141.97;71.71;47492.16;5019329;28;20233;-82
2023/09/10 04:18:37;;;;;;;7.50;4.60;;;;;;;-141.97;71.91;47547.91;5013535;28;20556;-80
2023/09/10 04:21:04;;;;;;;8.33;4.40;;;;;;;-141.97;71.66;47407.59;5012405;28;20167;-83
2023/09/10 04:23:29;;;;;;;9.27;4.67;;;;;;;-141.97;71.60;47492.16;5012828;28;20209;-82
2023/09/10 04:25:54;;;;;;;9.60;4.80;;;;;;;-141.97;71.09;47597.88;5013794;28;20166;-81
2023/09/10 04:28:20;;;;;;;6.70;4.70;;;;;;;-141.97;70.88;47457.56;5013615;28;20191;-81
2023/09/10 04:30:45;;;;;;;7.03;4.37;;;;;;;-141.97;70.76;47534.44;5014789;28;20163;-83
2023/09/10 04:33:11;;;;;;;8.47;4.53;;;;;;;-141.97;70.33;47582.50;5014298;28;20171;-81
2023/09/10 04:35:39;;;;;;;7.57;4.53;;;;;;;-141.97;69.83;47507.53;5014912;28;20182;-82
2023/09/10 04:38:04;;;;;;;10.40;4.33;;;;;;;-141.97;69.39;47519.06;5014686;28;20167;-82
2023/09/10 04:40:31;;;;;;;12.43;4.60;;;;;;;-141.97;69.67;47515.22;5014748;28;20245;-82
2023/09/10 04:42:56;;;;;;;11.20;4.60;;;;;;;-141.97;69.84;47542.16;5013568;28;20202;-82
2023/09/10 04:45:22;;;;;;;12.87;4.70;;;;;;;-141.97;69.11;47248.09;5013276;28;20174;-82
2023/09/10 04:47:47;;;;;;;9.10;4.30;;;;;;;-141.97;68.49;47578.66;5013507;28;20183;-82
2023/09/10 04:50:12;;;;;;;8.10;4.50;;;;;;;-141.97;68.62;47617.09;5013028;28;20281;-82
2023/09/10 04:52:38;;;;;;;7.37;4.10;;;;;;;-141.97;68.33;47486.41;5012776;28;20195;-82
2023/09/10 04:55:04;;;;;;;8.10;4.30;;;;;;;-141.97;69.01;47549.84;5012748;28;20167;-82
2023/09/10 04:57:29;;;;;;;6.67;4.43;;;;;;;-141.97;69.62;47334.56;5013754;28;20654;-81
2023/09/10 04:59:54;;;;;;;9.47;4.63;;;;;;;-141.97;70.06;47499.84;5036164;28;20175;-81
2023/09/10 05:02:20;;;;;;;9.57;4.70;;;;;;;-141.97;69.63;47463.34;5022901;28;20573;-83
2023/09/10 05:04:45;;;;;;;10.87;5.63;;;;;;;-141.97;68.40;47630.56;5011858;28;20330;-84
2023/09/10 05:07:10;;;;;;;11.93;5.57;;;;;;;-141.97;67.96;47496.00;5011795;28;20542;-84
2023/09/10 05:09:36;;;;;;;9.63;5.77;;;;;;;-141.97;67.87;47361.47;5011784;28;20287;-84
2023/09/10 05:12:01;;;;;;;11.53;5.30;;;;;;;-141.97;68.74;47451.81;5019074;28;20666;-83
2023/09/10 05:14:27;;;;;;;8.93;5.50;;;;;;;-141.97;68.97;47478.72;5019380;28;20178;-84
2023/09/10 05:16:52;;;;;;;10.67;5.67;;;;;;;-141.97;68.94;47442.19;5037375;28;20246;-82
2023/09/10 05:19:17;;;;;;;9.30;5.70;;;;;;;-141.97;68.61;47603.66;5019670;28;20183;-83
2023/09/10 05:21:43;;;;;;;9.87;5.30;;;;;;;-141.97;67.84;47298.06;5015755;28;20256;-83
2023/09/10 05:24:08;;;;;;;7.40;4.80;;;;;;;-141.97;67.75;47336.50;5015930;28;20242;-84
2023/09/10 05:26:34;;;;;;;9.60;4.77;;;;;;;-141.97;67.09;47499.84;5011830;28;20170;-84
2023/09/10 05:28:59;;;;;;;10.77;5.10;;;;;;;-141.97;66.60;47430.66;5011636;28;20163;-83
2023/09/10 05:31:25;;;;;;;6.60;4.50;;;;;;;-141.97;66.05;47478.72;5011467;28;20174;-85
2023/09/10 05:33:50;;;;;;;7.27;4.40;;;;;;;-141.97;65.30;47432.59;5011395;28;20669;-84
2023/09/10 05:36:16;;;;;;;8.20;4.50;;;;;;;-141.97;64.86;47459.50;5024577;28;20206;-82
2023/09/10 05:38:41;;;;;;;6.00;4.20;;;;;;;-141.97;64.38;47590.19;5031236;28;20548;-83
2023/09/10 05:41:07;;;;;;;7.47;4.40;;;;;;;-141.97;63.13;47519.06;5031011;28;20170;-85
2023/09/10 05:43:33;;;;;;;6.87;3.90;;;;;;;-141.97;62.43;47507.53;5031449;28;20217;-86
2023/09/10 05:45:58;;;;;;;9.07;4.20;;;;;;;-141.97;61.22;47501.78;5030724;28;20197;-85
2023/09/10 05:48:24;;;;;;;7.17;4.37;;;;;;;-141.97;59.62;47647.84;5029775;28;20530;-85
2023/09/10 05:50:49;;;;;;;7.77;4.00;;;;;;;-141.97;58.50;47319.19;5030511;28;20618;-84
2023/09/10 05:53:15;;;;;;;7.67;4.40;;;;;;;-141.97;57.83;47415.28;5030161;28;20170;-85
2023/09/10 05:55:41;;;;;;;9.60;3.90;;;;;;;-141.97;57.14;47694.00;5030576;28;20252;-85
2023/09/10 05:58:08;;;;;;;8.40;4.10;;;;;;;-141.97;56.96;47505.63;5030929;28;20174;-85
2023/09/10 06:00:34;;;;;;;8.50;4.50;;;;;;;-141.97;55.54;47446.03;5030046;28;20173;-85
2023/09/10 06:02:59;;;;;;;8.00;4.30;;;;;;;-141.97;55.09;47338.41;5031038;28;20542;-85
2023/09/10 06:05:25;;;;;;;7.57;4.20;;;;;;;-141.97;53.58;47661.31;5030321;28;20220;-85
2023/09/10 06:07:50;;;;;;;8.60;4.47;;;;;;;-141.97;53.32;47509.47;5030197;28;20178;-86
2023/09/10 06:10:15;;;;;;;6.07;4.00;;;;;;;-141.97;52.71;47519.06;5045824;28;20221;-85
2023/09/10 06:12:47;;;;;;;8.40;4.13;;;;;;;-141.97;51.78;47461.41;5030099;28;20158;-86
2023/09/10 06:15:12;;;;;;;8.33;4.07;;;;;;;-141.97;50.89;47428.75;5045854;28;20166;-85
2023/09/10 06:17:38;;;;;;;6.47;3.90;;;;;;;-141.97;50.34;47496.00;5029657;28;20495;-84
2023/09/10 06:20:04;;;;;;;10.40;4.50;;;;;;;-141.97;50.86;47407.59;5029115;28;20174;-84
2023/09/10 06:22:30;;;;;;;8.17;4.40;;;;;;;-141.97;50.23;47357.63;5029444;28;20224;-85
2023/09/10 06:24:55;;;;;;;5.90;4.47;;;;;;;-141.97;49.34;47405.69;5029015;28;20174;-84
2023/09/10 06:27:21;;;;;;;7.00;4.17;;;;;;;-141.97;48.15;47480.63;5030419;28;20174;-87
2023/09/10 06:29:46;;;;;;;6.47;4.40;;;;;;;-141.97;47.92;47547.91;5030884;28;20166;-87
2023/09/10 06:32:12;;;;;;;9.17;4.60;;;;;;;-141.97;46.16;47667.06;5030668;28;20599;-85
2023/09/10 06:34:37;;;;;;;8.40;4.80;;;;;;;-141.97;45.80;47474.88;5035527;28;20174;-85
2023/09/10 06:37:03;;;;;;;6.80;4.30;;;;;;;-141.97;45.33;47599.81;5051180;28;20197;-85
2023/09/10 06:39:29;;;;;;;6.23;4.00;;;;;;;-141.97;44.99;47442.19;5051160;28;20230;-85
2023/09/10 06:41:55;;;;;;;9.43;4.50;;;;;;;-141.97;44.85;47376.84;5046923;28;20201;-85
2023/09/10 06:44:20;;;;;;;11.27;5.90;;;;;;;-141.97;44.63;47490.25;5037098;28;20199;-85
2023/09/10 06:46:46;;;;;;;8.03;5.30;;;;;;;-141.97;44.59;47467.19;5035027;28;20170;-85
2023/09/10 06:49:11;;;;;;;9.17;5.40;;;;;;;-141.97;44.54;47436.44;5033955;28;20177;-86
2023/09/10 06:51:37;;;;;;;6.77;4.70;;;;;;;-141.97;45.32;47349.94;5043059;28;20210;-86
2023/09/10 06:54:02;;;;;;;7.07;5.00;;;;;;;-141.97;44.34;47290.38;5035875;28;20212;-85
2023/09/10 06:56:31;;;;;;;8.70;5.10;;;;;;;-141.97;43.83;47453.72;5030748;28;20178;-86
2023/09/10 06:58:56;;;;;;;7.37;4.83;;;;;;;-141.97;43.68;47451.81;5029036;28;20240;-86
2023/09/10 07:01:21;;;;;;;7.97;5.17;;;;;;;-141.97;42.49;47449.88;5031067;28;20635;-87
2023/09/10 07:03:51;;;;;;;8.73;4.67;;;;;;;-141.97;41.84;47446.03;5045698;28;20170;-86
2023/09/10 07:06:17;;;;;;;6.37;4.47;;;;;;;-141.97;41.39;47532.53;5032011;28;20244;-88
2023/09/10 07:08:42;;;;;;;6.47;4.37;;;;;;;-141.97;41.12;47298.06;5032702;28;20178;-85
2023/09/10 07:11:08;;;;;;;6.60;4.27;;;;;;;-141.97;41.56;47338.41;5035321;28;20229;-88
2023/09/10 07:13:36;;;;;;;6.33;4.07;;;;;;;-141.97;41.18;47299.97;5031835;28;20227;-86
2023/09/10 07:16:02;;;;;;;7.97;5.20;;;;;;;-141.97;40.17;47409.53;5034032;28;20173;-86
2023/09/10 07:18:32;;;;;;;9.40;4.30;;;;;;;-141.97;38.23;47250.00;5032963;28;20170;-87
2023/09/10 07:20:59;;;;;;;8.23;4.63;;;;;;;-141.97;38.12;47426.81;5039702;28;20174;-87
2023/09/10 07:23:24;;;;;;;6.53;4.40;;;;;;;-141.97;38.43;47480.63;5048655;28;20201;-86
2023/09/10 07:25:50;;;;;;;6.93;4.10;;;;;;;-141.97;37.99;47422.97;5044829;28;20245;-86
2023/09/10 07:28:15;;;;;;;8.63;4.20;;;;;;;-141.97;37.35;47409.53;5052580;28;20166;-87
2023/09/10 07:30:40;;;;;;;7.07;4.40;;;;;;;-141.97;36.53;47411.44;5044421;28;20666;-85
2023/09/10 07:33:06;;;;;;;7.07;4.40;;;;;;;-141.97;35.75;47553.69;5034691;28;20938;-85
2023/09/10 07:35:31;;;;;;;7.73;4.40;;;;;;;-141.97;35.34;47424.91;5033153;28;20162;-86
2023/09/10 07:37:57;;;;;;;6.50;4.40;;;;;;;-141.97;35.13;47330.72;5034385;28;20166;-86
2023/09/10 07:40:22;;;;;;;10.17;5.07;;;;;;;-141.97;35.54;47182.75;5045744;28;20197;-87
2023/09/10 07:42:48;;;;;;;8.80;5.20;;;;;;;-141.97;34.79;47413.38;5053154;28;20232;-87
2023/09/10 07:45:14;;;;;;;7.40;4.37;;;;;;;-141.97;34.46;47447.97;5040561;28;20250;-85
2023/09/10 07:47:40;;;;;;;15.27;7.80;;;;;;;-141.97;34.42;47234.63;5034354;28;20158;-86
2023/09/10 07:50:06;;;;;;;6.83;4.77;;;;;;;-141.97;33.85;47396.06;5049846;28;20166;-84
2023/09/10 07:52:32;;;;;;;5.47;4.00;;;;;;;-141.97;34.05;47257.69;5044793;28;20178;-85
2023/09/10 07:54:57;;;;;;;9.43;5.53;;;;;;;-141.97;33.61;47417.22;5033520;28;20174;-85
2023/09/10 07:57:24;;;;;;;5.43;4.40;;;;;;;-141.97;33.56;47363.41;5033123;28;20193;-87
2023/09/10 07:59:50;;;;;;;5.10;3.93;;;;;;;-141.97;33.49;47388.38;5035509;28;20158;-85
2023/09/10 08:02:16;;;;;;;6.13;3.90;;;;;;;-141.97;33.12;47234.63;5033162;28;20198;-85
2023/09/10 08:04:42;;;;;;;9.63;4.30;;;;;;;-141.97;32.57;47376.84;5032754;28;20198;-86
2023/09/10 08:07:07;;;;;;;7.53;3.90;;;;;;;-141.97;32.20;47499.84;5031969;28;20196;-86
2023/09/10 08:09:33;;;;;;;6.37;3.73;;;;;;;-141.97;32.18;47388.38;5032397;28;20707;-86
2023/09/10 08:11:58;;;;;;;8.17;4.10;;;;;;;-141.97;32.58;47586.34;5032971;28;20255;-88
2023/09/10 08:14:24;;;;;;;7.67;3.97;;;;;;;-141.97;32.06;47380.69;5032651;28;20170;-86
2023/09/10 08:16:49;;;;;;;5.32;4.40;;;;;;;-141.97;31.53;47305.75;5031254;28;20224;-86
2023/09/10 08:19:14;;;;;;;8.15;5.10;;;;;;;-141.97;30.71;47169.28;5032486;28;20332;-86
2023/09/10 08:21:41;;;;;;;8.63;4.00;;;;;;;-141.97;30.60;47409.53;5033486;28;20620;-87
2023/09/10 08:24:07;;;;;;;5.45;4.30;;;;;;;-141.97;30.30;47273.06;5033416;28;20639;-87
2023/09/10 08:26:32;;;;;;;6.57;4.20;;;;;;;-141.97;30.03;47359.56;5032335;28;20192;-86
2023/09/10 08:28:58;;;;;;;7.18;4.10;;;;;;;-141.97;30.64;47384.53;5032682;28;20653;-88
2023/09/10 08:31:23;;;;;;;6.05;4.43;;;;;;;-141.97;30.98;47413.38;5033171;28;20193;-86
2023/09/10 08:33:49;;;;;;;9.07;5.05;;;;;;;-141.97;31.17;47244.25;5033127;28;20175;-87
2023/09/10 08:36:14;;;;;;;7.90;4.25;;;;;;;-141.97;31.17;47386.47;5032280;28;20178;-86
2023/09/10 08:38:41;;;;;;;9.73;4.32;;;;;;;-141.97;31.10;47265.38;5032039;28;20173;-86
2023/09/10 08:41:23;;;;;;;6.05;4.30;;;;;;;-141.97;30.70;47469.09;5032118;28;20169;-86
2023/09/10 08:43:58;;;;;;;6.50;4.53;;;;;;;-141.97;30.65;47536.38;5032625;28;20627;-86
2023/09/10 08:46:30;;;;;;;6.30;4.15;;;;;;;-141.97;30.17;47388.38;5031240;28;20206;-86
2023/09/10 08:48:56;;;;;;;9.30;4.80;;;;;;;-141.97;30.43;47628.63;5032364;28;20213;-86
2023/09/10 08:51:23;;;;;;;5.43;4.13;;;;;;;-141.97;30.22;47392.22;5031149;28;20561;-85
2023/09/10 08:53:50;;;;;;;7.40;4.40;;;;;;;-141.97;30.22;47536.38;5031846;28;20177;-85
2023/09/10 08:56:15;;;;;;;7.13;4.20;;;;;;;-141.97;29.66;47459.50;5032201;28;20172;-86
2023/09/10 08:58:42;;;;;;;5.07;4.47;;;;;;;-141.97;29.64;47369.16;5031997;28;20179;-86
2023/09/10 09:01:08;;;;;;;5.07;4.45;;;;;;;-141.97;29.50;47167.38;5031741;28;20211;-87
2023/09/10 09:03:34;;;;;;;9.00;5.20;;;;;;;-141.97;29.73;47321.13;5030068;28;20254;-86
2023/09/10 09:06:03;;;;;;;6.40;4.68;;;;;;;-141.97;30.28;47188.50;5031637;28;20587;-86
2023/09/10 09:08:30;;;;;;;6.70;4.63;;;;;;;-141.97;30.63;47257.69;5031889;28;20169;-85
2023/09/10 09:10:58;;;;;;;9.88;4.32;;;;;;;-141.97;30.15;47261.53;5030173;28;20240;-86
2023/09/10 09:13:26;;;;;;;5.88;4.70;;;;;;;-141.97;29.71;47384.53;5031190;28;20190;-87
2023/09/10 09:15:52;;;;;;;7.88;4.97;;;;;;;-141.97;29.82;47278.84;5032828;28;20259;-85
2023/09/10 09:18:18;;;;;;;5.90;4.65;;;;;;;-141.97;29.97;47280.75;5032180;28;20180;-86
2023/09/10 09:20:46;;;;;;;7.53;4.70;;;;;;;-141.97;30.15;47326.88;5030516;28;20169;-85
2023/09/10 09:23:18;;;;;;;8.95;4.88;;;;;;;-141.97;29.63;47599.81;5032605;28;20202;-86
2023/09/10 09:25:43;;;;;;;5.70;4.82;;;;;;;-141.97;29.74;47355.72;5034239;28;20169;-86
2023/09/10 09:28:10;;;;;;;6.13;4.75;;;;;;;-141.97;29.84;47328.81;5046120;28;20201;-87
2023/09/10 09:30:35;;;;;;;9.27;4.78;;;;;;;-141.97;30.00;47480.63;5257522;23;21022;-84
2023/09/10 09:33:01;;;;;;;7.47;4.82;;;;;;;-141.97;30.03;47311.50;5052577;28;20286;-85
2023/09/10 09:35:27;;;;;;;7.15;4.80;;;;;;;-141.97;29.95;47292.28;5032516;28;20172;-87
2023/09/10 09:37:52;;;;;;;9.65;4.80;;;;;;;-141.97;29.29;47328.81;5033619;28;20190;-87
2023/09/10 09:40:21;;;;;;;6.57;4.70;;;;;;;-141.97;29.16;47232.72;5017782;28;20226;-88
2023/09/10 09:42:47;;;;;;;6.13;4.78;;;;;;;-141.97;29.39;47030.91;5016972;28;20692;-87
2023/09/10 09:45:12;;;;;;;7.47;4.60;;;;;;;-141.97;29.47;47453.72;5014836;28;20220;-87
2023/09/10 09:47:38;;;;;;;9.00;4.95;;;;;;;-141.97;29.21;47309.59;5018053;28;20168;-87
2023/09/10 09:50:04;;;;;;;8.32;5.20;;;;;;;-141.97;29.04;47303.81;5015855;28;20241;-86
2023/09/10 09:52:30;;;;;;;6.20;5.03;;;;;;;-141.97;29.02;47524.84;5014887;28;20166;-86
2023/09/10 09:54:55;;;;;;;9.40;5.07;;;;;;;-141.97;28.74;47015.53;5013135;28;20157;-84
2023/09/10 09:57:21;;;;;;;8.43;5.07;;;;;;;-141.97;28.87;47309.59;5014830;28;20251;-84
2023/09/10 09:59:48;;;;;;;9.60;5.93;;;;;;;-141.97;29.77;47515.22;5029945;28;20177;-81
2023/09/10 10:02:15;;;;;;;8.82;5.63;;;;;;;-141.97;30.11;47261.53;5026921;28;20221;-80
2023/09/10 10:04:43;;;;;;;8.88;5.70;;;;;;;-141.97;29.78;47121.25;5029087;28;20205;-83
2023/09/10 10:07:12;;;;;;;7.20;5.43;;;;;;;-141.97;29.50;47326.88;5013313;28;20201;-84
2023/09/10 10:09:40;;;;;;;9.82;5.68;;;;;;;-141.97;29.02;47309.59;5011698;28;20200;-83
2023/09/10 10:12:07;;;;;;;10.30;5.63;;;;;;;-141.97;29.33;47299.97;5011273;28;20225;-85
2023/09/10 10:14:36;;;;;;;8.35;5.93;;;;;;;-141.97;29.59;47326.88;5011733;28;20188;-83
2023/09/10 10:17:03;;;;;;;7.88;5.40;;;;;;;-141.97;30.30;47334.56;5015272;28;20222;-86
2023/09/10 10:19:30;;;;;;;6.95;5.43;;;;;;;-141.97;30.14;47330.72;5016946;28;20181;-83
2023/09/10 10:21:56;;;;;;;8.27;5.40;;;;;;;-141.97;29.53;47290.38;5018598;28;20188;-85
2023/09/10 10:24:22;;;;;;;6.63;5.20;;;;;;;-141.97;30.04;47127.00;5017438;28;20169;-84
2023/09/10 10:26:51;;;;;;;7.45;5.40;;;;;;;-141.97;30.12;47334.56;5012883;28;20166;-85
2023/09/10 10:29:18;;;;;;;6.85;5.40;;;;;;;-141.97;29.98;47422.97;5018404;28;20177;-86
2023/09/10 10:31:48;;;;;;;8.18;5.43;;;;;;;-141.97;30.05;47340.34;5011295;28;20230;-85
2023/09/10 10:34:23;;;;;;;8.55;5.75;;;;;;;-141.97;30.24;47200.03;5012058;28;20231;-85
2023/09/10 10:37:07;;;;;;;5.70;5.07;;;;;;;-141.97;29.88;47536.38;5028720;28;20174;-86
2023/09/10 10:39:49;;;;;;;8.52;5.38;;;;;;;-141.97;29.92;47338.41;5010827;28;20197;-86
2023/09/10 10:42:17;;;;;;;9.18;5.18;;;;;;;-141.97;29.65;47326.88;5014687;28;20275;-86
2023/09/10 10:44:43;;;;;;;8.25;4.90;;;;;;;-141.97;29.18;47317.28;5013402;28;20174;-84
2023/09/10 10:47:17;;;;;;;10.07;5.18;;;;;;;-141.97;29.85;47323.03;5014879;28;20252;-84
2023/09/10 10:49:52;;;;;;;5.75;5.15;;;;;;;-141.97;29.21;47180.81;5015057;28;20189;-84
2023/09/10 10:52:30;;;;;;;8.05;5.43;;;;;;;-141.97;29.01;47161.59;5013548;28;20173;-86
2023/09/10 10:54:57;;;;;;;11.07;5.53;;;;;;;-141.97;29.36;47211.56;5014088;28;20652;-85
2023/09/10 10:57:23;;;;;;;7.07;5.40;;;;;;;-141.97;29.19;47317.28;5014722;28;20709;-83
2023/09/10 10:59:50;;;;;;;8.18;5.50;;;;;;;-141.97;29.19;47248.09;5013310;28;20269;-87
2023/09/10 11:02:22;;;;;;;9.38;5.22;;;;;;;-141.97;28.90;47332.66;5013640;28;20587;-86
2023/09/10 11:04:57;;;;;;;9.98;5.18;;;;;;;-141.97;29.53;47294.22;5014322;28;20176;-86
2023/09/10 11:07:23;;;;;;;7.95;5.00;;;;;;;-141.97;28.94;47280.75;5013664;28;20258;-85
2023/09/10 11:09:49;;;;;;;6.85;4.70;;;;;;;-141.97;29.12;47315.34;5019098;28;20539;-83
2023/09/10 11:12:15;;;;;;;9.23;4.55;;;;;;;-141.97;29.28;47511.38;5030191;28;20207;-84